Time;durP1;ratioP1;P1;durP2;ratioP2;P2;SDS_P1;SDS_P2;PMS_P1;PMS_P2;Temp;Humidity;BMP_temperature;BMP_pressure;BME280_temperature;BME280_humidity;BME280_pressure;Samples;Min_cycle;Max_cycle;Signal;HPM_P1;HPM_P2
2022/11/23 00:01:26;;;;;;;6.50;1.90;;;;;;;;;;5024686;28;20446;-77
2022/11/23 00:03:53;;;;;;;7.00;1.87;;;;;;;;;;5032110;28;20339;-77
2022/11/23 00:06:22;;;;;;;5.93;1.33;;;;;;;;;;5015696;28;20029;-76
2022/11/23 00:08:48;;;;;;;7.47;1.27;;;;;;;;;;5029744;28;20022;-77
2022/11/23 00:11:15;;;;;;;7.40;1.40;;;;;;;;;;5015741;28;20029;-76
2022/11/23 00:13:41;;;;;;;4.40;1.07;;;;;;;;;;5014357;28;20029;-77
2022/11/23 00:16:08;;;;;;;5.93;1.40;;;;;;;;;;5047511;28;20034;-76
2022/11/23 00:18:34;;;;;;;4.37;0.70;;;;;;;;;;5016504;28;20423;-76
2022/11/23 00:21:04;;;;;;;6.67;1.20;;;;;;;;;;5015322;28;20088;-76
2022/11/23 00:23:30;;;;;;;7.50;1.60;;;;;;;;;;5014375;28;20084;-77
2022/11/23 00:25:56;;;;;;;5.10;1.20;;;;;;;;;;5015620;28;20044;-76
2022/11/23 00:28:22;;;;;;;4.87;1.50;;;;;;;;;;5014218;28;20462;-77
2022/11/23 00:30:49;;;;;;;4.23;0.77;;;;;;;;;;5014416;28;20022;-77
2022/11/23 00:33:15;;;;;;;3.10;0.60;;;;;;;;;;5014424;28;20109;-76
2022/11/23 00:35:44;;;;;;;1.53;0.60;;;;;;;;;;5014745;28;20030;-77
2022/11/23 00:38:13;;;;;;;3.53;0.90;;;;;;;;;;5014534;28;20033;-77
2022/11/23 00:40:39;;;;;;;7.17;1.37;;;;;;;;;;5014933;28;20029;-77
2022/11/23 00:43:05;;;;;;;4.30;0.70;;;;;;;;;;5027401;28;20041;-77
2022/11/23 00:45:31;;;;;;;5.10;0.90;;;;;;;;;;5030909;28;20033;-77
2022/11/23 00:47:57;;;;;;;2.90;0.60;;;;;;;;;;5025460;28;20026;-76
2022/11/23 00:50:23;;;;;;;2.73;0.70;;;;;;;;;;5009696;28;20431;-77
2022/11/23 00:52:49;;;;;;;1.53;0.70;;;;;;;;;;5022703;28;20030;-77
2022/11/23 00:55:15;;;;;;;3.03;0.47;;;;;;;;;;5015067;28;20033;-77
2022/11/23 00:57:41;;;;;;;4.67;0.83;;;;;;;;;;5020606;28;20030;-77
2022/11/23 01:00:08;;;;;;;2.33;0.60;;;;;;;;;;5001039;28;20034;-77
2022/11/23 01:02:35;;;;;;;2.87;1.03;;;;;;;;;;5014262;28;20068;-77
2022/11/23 01:05:01;;;;;;;4.20;0.60;;;;;;;;;;4999169;28;20045;-77
2022/11/23 01:07:29;;;;;;;6.53;1.00;;;;;;;;;;5014693;28;20423;-77
2022/11/23 01:09:55;;;;;;;4.67;0.70;;;;;;;;;;5046756;28;20514;-77
2022/11/23 01:12:24;;;;;;;1.90;0.60;;;;;;;;;;5014117;28;20095;-77
2022/11/23 01:14:52;;;;;;;1.70;0.67;;;;;;;;;;5014542;28;20025;-77
2022/11/23 01:17:18;;;;;;;5.90;1.13;;;;;;;;;;5028266;28;20358;-77
2022/11/23 01:19:44;;;;;;;11.80;1.67;;;;;;;;;;5029993;28;20371;-78
2022/11/23 01:22:10;;;;;;;6.37;0.67;;;;;;;;;;5012788;28;20029;-77
2022/11/23 01:24:36;;;;;;;2.67;0.90;;;;;;;;;;5045332;28;20021;-76
2022/11/23 01:27:03;;;;;;;4.60;0.73;;;;;;;;;;5045503;28;20041;-77
2022/11/23 01:29:29;;;;;;;4.03;0.80;;;;;;;;;;5043392;28;20034;-77
2022/11/23 01:31:55;;;;;;;3.43;0.80;;;;;;;;;;5014131;28;20026;-77
2022/11/23 01:34:21;;;;;;;4.90;0.90;;;;;;;;;;5013928;28;20030;-76
2022/11/23 01:36:47;;;;;;;3.63;0.97;;;;;;;;;;5012483;28;20462;-77
2022/11/23 01:39:13;;;;;;;3.63;1.07;;;;;;;;;;5027280;28;20096;-77
2022/11/23 01:41:40;;;;;;;6.40;1.30;;;;;;;;;;5027298;28;20096;-77
2022/11/23 01:44:22;;;;;;;3.73;1.20;;;;;;;;;;5015577;28;20034;-76
2022/11/23 01:46:48;;;;;;;3.70;0.83;;;;;;;;;;5013216;28;20378;-76
2022/11/23 01:49:14;;;;;;;6.23;0.73;;;;;;;;;;5026051;28;20044;-75
2022/11/23 01:51:41;;;;;;;8.47;2.20;;;;;;;;;;5030198;28;20045;-77
2022/11/23 01:54:10;;;;;;;4.97;0.83;;;;;;;;;;5026919;28;20709;-76
2022/11/23 01:56:39;;;;;;;5.47;1.30;;;;;;;;;;5020420;28;20076;-77
2022/11/23 01:59:08;;;;;;;2.03;0.50;;;;;;;;;;5018975;28;20849;-77
2022/11/23 02:01:34;;;;;;;3.13;1.03;;;;;;;;;;5019338;28;20097;-76
2022/11/23 02:04:01;;;;;;;3.77;0.90;;;;;;;;;;5030324;28;20030;-75
2022/11/23 02:06:27;;;;;;;8.00;0.83;;;;;;;;;;5018480;28;20037;-76
2022/11/23 02:08:53;;;;;;;4.43;1.10;;;;;;;;;;5030920;28;20030;-76
2022/11/23 02:11:19;;;;;;;6.87;1.93;;;;;;;;;;5018689;28;21523;-76
2022/11/23 02:13:47;;;;;;;4.73;0.97;;;;;;;;;;5029011;28;20033;-75
2022/11/23 02:16:13;;;;;;;3.70;0.93;;;;;;;;;;5030299;28;20061;-75
2022/11/23 02:18:41;;;;;;;5.57;1.17;;;;;;;;;;5016663;28;20037;-77
2022/11/23 02:21:07;;;;;;;4.27;1.07;;;;;;;;;;5027828;28;20033;-75
2022/11/23 02:23:37;;;;;;;7.20;1.27;;;;;;;;;;5018197;28;20045;-76
2022/11/23 02:26:13;;;;;;;6.07;1.73;;;;;;;;;;5019292;28;20534;-75
2022/11/23 02:28:43;;;;;;;4.67;0.90;;;;;;;;;;5016506;28;20025;-76
2022/11/23 02:31:11;;;;;;;5.57;1.00;;;;;;;;;;5015783;28;20038;-77
2022/11/23 02:33:40;;;;;;;5.00;1.50;;;;;;;;;;5017620;28;20021;-76
2022/11/23 02:36:22;;;;;;;10.10;1.53;;;;;;;;;;5025364;28;20107;-75
2022/11/23 02:38:48;;;;;;;8.67;1.93;;;;;;;;;;5031245;28;20034;-76
2022/11/23 02:41:14;;;;;;;6.40;1.50;;;;;;;;;;5016859;28;20106;-77
2022/11/23 02:43:40;;;;;;;7.30;1.47;;;;;;;;;;5018649;28;20466;-77
2022/11/23 02:46:06;;;;;;;4.43;1.17;;;;;;;;;;5020515;28;20458;-77
2022/11/23 02:48:34;;;;;;;6.80;1.57;;;;;;;;;;5034208;28;20052;-76
2022/11/23 02:51:00;;;;;;;10.07;2.03;;;;;;;;;;5030924;28;20034;-77
2022/11/23 02:53:26;;;;;;;10.27;2.00;;;;;;;;;;5025842;28;20109;-76
2022/11/23 02:55:52;;;;;;;6.93;1.50;;;;;;;;;;5019721;28;20092;-77
2022/11/23 02:58:18;;;;;;;5.77;1.47;;;;;;;;;;5017507;28;20604;-76
2022/11/23 03:00:44;;;;;;;5.97;1.47;;;;;;;;;;5033260;28;20034;-75
2022/11/23 03:03:10;;;;;;;10.63;2.10;;;;;;;;;;5017856;28;20034;-75
2022/11/23 03:05:36;;;;;;;11.47;1.27;;;;;;;;;;5030990;28;20029;-77
2022/11/23 03:08:02;;;;;;;8.93;1.80;;;;;;;;;;5016365;28;20124;-76
2022/11/23 03:10:28;;;;;;;4.80;1.30;;;;;;;;;;5017585;28;21723;-77
2022/11/23 03:12:55;;;;;;;7.07;1.83;;;;;;;;;;5018643;28;20458;-77
2022/11/23 03:15:21;;;;;;;3.17;0.90;;;;;;;;;;5026705;28;20151;-77
2022/11/23 03:17:47;;;;;;;10.33;1.53;;;;;;;;;;5015767;28;20052;-77
2022/11/23 03:20:13;;;;;;;5.17;1.20;;;;;;;;;;5015016;28;20116;-77
2022/11/23 03:22:39;;;;;;;4.90;1.53;;;;;;;;;;5033589;28;20041;-77
2022/11/23 03:25:05;;;;;;;9.93;1.40;;;;;;;;;;5017964;28;20123;-76
2022/11/23 03:27:32;;;;;;;8.17;2.50;;;;;;;;;;5016083;28;20026;-76
2022/11/23 03:29:58;;;;;;;8.03;2.13;;;;;;;;;;5017223;28;20057;-77
2022/11/23 03:32:25;;;;;;;4.90;1.00;;;;;;;;;;5016171;28;20084;-76
2022/11/23 03:34:51;;;;;;;9.40;1.10;;;;;;;;;;5015380;28;20041;-77
2022/11/23 03:37:17;;;;;;;8.73;1.97;;;;;;;;;;5029588;28;20052;-77
2022/11/23 03:39:43;;;;;;;7.80;1.40;;;;;;;;;;5031541;28;20442;-77
2022/11/23 03:42:09;;;;;;;10.20;1.40;;;;;;;;;;5031800;28;20026;-76
2022/11/23 03:44:35;;;;;;;7.27;1.50;;;;;;;;;;5014938;28;20030;-77
2022/11/23 03:47:01;;;;;;;6.17;1.10;;;;;;;;;;5021298;28;20033;-77
2022/11/23 03:49:27;;;;;;;7.60;2.10;;;;;;;;;;5032384;28;20040;-77
2022/11/23 03:51:53;;;;;;;5.10;1.50;;;;;;;;;;5015238;28;20037;-77
2022/11/23 03:54:19;;;;;;;6.33;1.20;;;;;;;;;;5015593;28;20033;-77
2022/11/23 03:56:45;;;;;;;4.70;0.90;;;;;;;;;;5015906;28;20430;-77
2022/11/23 03:59:11;;;;;;;8.13;1.37;;;;;;;;;;5014890;28;20037;-77
2022/11/23 04:01:37;;;;;;;7.50;1.13;;;;;;;;;;5015519;28;20042;-77
2022/11/23 04:04:03;;;;;;;7.20;1.57;;;;;;;;;;5015042;28;20026;-77
2022/11/23 04:06:29;;;;;;;5.70;1.00;;;;;;;;;;5043584;28;20454;-75
2022/11/23 04:08:58;;;;;;;4.03;1.10;;;;;;;;;;5012804;28;20037;-77
2022/11/23 04:11:24;;;;;;;8.93;1.50;;;;;;;;;;5040406;28;20030;-77
2022/11/23 04:13:50;;;;;;;5.37;1.03;;;;;;;;;;5031077;28;20033;-76
2022/11/23 04:16:16;;;;;;;6.27;2.00;;;;;;;;;;5015323;28;20033;-77
2022/11/23 04:18:42;;;;;;;5.87;2.37;;;;;;;;;;5013860;28;20029;-77
2022/11/23 04:21:08;;;;;;;6.83;1.27;;;;;;;;;;5015480;28;20021;-76
2022/11/23 04:23:34;;;;;;;9.37;1.53;;;;;;;;;;5012707;28;20034;-77
2022/11/23 04:26:00;;;;;;;9.07;1.30;;;;;;;;;;5029349;28;20026;-76
2022/11/23 04:28:28;;;;;;;4.37;1.23;;;;;;;;;;5015333;28;20030;-77
2022/11/23 04:30:54;;;;;;;4.37;1.10;;;;;;;;;;5014626;28;20394;-77
2022/11/23 04:33:20;;;;;;;5.83;1.27;;;;;;;;;;5016154;28;20030;-76
2022/11/23 04:35:46;;;;;;;6.90;1.60;;;;;;;;;;5030731;28;20142;-77
2022/11/23 04:38:12;;;;;;;7.90;1.47;;;;;;;;;;5013340;28;20025;-77
2022/11/23 04:40:38;;;;;;;4.67;1.07;;;;;;;;;;5044268;28;20037;-77
2022/11/23 04:43:05;;;;;;;8.73;1.63;;;;;;;;;;5012933;28;20454;-77
2022/11/23 04:45:31;;;;;;;6.80;1.10;;;;;;;;;;5010614;28;20080;-77
2022/11/23 04:47:59;;;;;;;7.23;1.53;;;;;;;;;;5015095;28;20018;-77
2022/11/23 04:50:25;;;;;;;7.87;2.10;;;;;;;;;;5020366;28;20357;-77
2022/11/23 04:52:51;;;;;;;5.50;1.07;;;;;;;;;;5014097;28;20064;-76
2022/11/23 04:55:17;;;;;;;6.43;1.97;;;;;;;;;;5013965;28;20462;-77
2022/11/23 04:57:47;;;;;;;4.80;1.00;;;;;;;;;;5013886;28;20132;-77
2022/11/23 05:00:16;;;;;;;10.20;1.90;;;;;;;;;;5014235;28;20038;-77
2022/11/23 05:02:42;;;;;;;5.80;1.23;;;;;;;;;;5013286;28;20049;-77
2022/11/23 05:05:08;;;;;;;5.50;1.37;;;;;;;;;;5014448;28;20068;-77
2022/11/23 05:07:37;;;;;;;9.90;1.80;;;;;;;;;;5010018;28;20450;-77
2022/11/23 05:10:03;;;;;;;6.53;1.20;;;;;;;;;;5013396;28;20033;-77
2022/11/23 05:12:32;;;;;;;4.20;1.30;;;;;;;;;;5010564;28;20093;-77
2022/11/23 05:14:58;;;;;;;7.23;1.53;;;;;;;;;;5042314;28;20040;-77
2022/11/23 05:17:24;;;;;;;7.53;1.90;;;;;;;;;;5009575;28;20069;-77
2022/11/23 05:19:53;;;;;;;10.10;1.53;;;;;;;;;;5024066;28;20045;-77
2022/11/23 05:22:19;;;;;;;9.70;1.90;;;;;;;;;;5005684;28;20029;-77
2022/11/23 05:24:45;;;;;;;9.17;2.23;;;;;;;;;;5014222;28;20033;-77
2022/11/23 05:27:11;;;;;;;9.70;2.17;;;;;;;;;;5018513;28;20021;-77
2022/11/23 05:29:39;;;;;;;6.47;1.77;;;;;;;;;;5018693;28;20080;-77
2022/11/23 05:32:07;;;;;;;7.37;1.83;;;;;;;;;;5017331;28;20064;-77
2022/11/23 05:34:34;;;;;;;15.93;2.27;;;;;;;;;;5017440;28;20030;-77
2022/11/23 05:37:00;;;;;;;9.37;1.50;;;;;;;;;;5027581;28;20030;-76
2022/11/23 05:39:26;;;;;;;7.07;1.80;;;;;;;;;;5027219;28;21975;-77
2022/11/23 05:41:52;;;;;;;7.60;1.80;;;;;;;;;;5027218;28;20114;-77
2022/11/23 05:44:18;;;;;;;6.43;1.40;;;;;;;;;;5034023;28;20524;-77
2022/11/23 05:46:44;;;;;;;7.60;1.87;;;;;;;;;;5023301;28;20033;-77
2022/11/23 05:49:10;;;;;;;8.33;2.03;;;;;;;;;;5033875;28;20033;-77
2022/11/23 05:51:39;;;;;;;11.10;2.03;;;;;;;;;;5050198;28;20131;-77
2022/11/23 05:54:05;;;;;;;5.90;1.40;;;;;;;;;;5030685;28;20034;-77
2022/11/23 05:56:35;;;;;;;12.30;2.70;;;;;;;;;;5034024;28;20103;-77
2022/11/23 05:59:05;;;;;;;9.07;2.30;;;;;;;;;;5023415;28;20602;-77
2022/11/23 06:01:31;;;;;;;9.07;1.50;;;;;;;;;;5046928;28;20033;-77
2022/11/23 06:03:58;;;;;;;7.27;1.50;;;;;;;;;;5017994;28;20026;-77
2022/11/23 06:06:24;;;;;;;9.13;1.80;;;;;;;;;;5016472;28;20353;-77
2022/11/23 06:08:52;;;;;;;5.73;1.70;;;;;;;;;;5017986;28;20517;-76
2022/11/23 06:11:18;;;;;;;6.33;1.30;;;;;;;;;;5015997;28;20057;-77
2022/11/23 06:13:46;;;;;;;7.60;1.30;;;;;;;;;;5017217;28;20034;-77
2022/11/23 06:16:13;;;;;;;6.80;1.17;;;;;;;;;;5015918;28;20418;-77
2022/11/23 06:18:39;;;;;;;7.90;1.03;;;;;;;;;;5015783;28;20025;-77
2022/11/23 06:21:05;;;;;;;7.37;1.07;;;;;;;;;;5018150;28;20744;-76
2022/11/23 06:23:31;;;;;;;4.57;1.10;;;;;;;;;;5017596;28;20084;-76
2022/11/23 06:26:00;;;;;;;11.67;2.13;;;;;;;;;;5033484;28;20038;-76
2022/11/23 06:28:27;;;;;;;7.37;1.60;;;;;;;;;;5017072;28;20049;-77
2022/11/23 06:30:54;;;;;;;7.00;1.27;;;;;;;;;;5017737;28;20486;-77
2022/11/23 06:33:20;;;;;;;8.67;2.00;;;;;;;;;;5016956;28;20021;-76
2022/11/23 06:35:53;;;;;;;6.87;1.40;;;;;;;;;;5049466;28;20469;-76
2022/11/23 06:38:19;;;;;;;6.93;1.17;;;;;;;;;;5004317;28;20117;-77
2022/11/23 06:40:45;;;;;;;13.77;2.23;;;;;;;;;;5015314;28;20022;-77
2022/11/23 06:43:11;;;;;;;10.50;1.10;;;;;;;;;;5016076;28;20045;-76
2022/11/23 06:45:37;;;;;;;9.07;2.30;;;;;;;;;;5016353;28;20034;-76
2022/11/23 06:48:03;;;;;;;4.87;1.27;;;;;;;;;;5008774;28;20049;-77
2022/11/23 06:50:29;;;;;;;10.93;1.30;;;;;;;;;;5032272;28;20112;-77
2022/11/23 06:52:56;;;;;;;5.53;1.63;;;;;;;;;;5030735;28;20045;-77
2022/11/23 06:55:24;;;;;;;8.83;1.40;;;;;;;;;;5015694;28;20041;-77
2022/11/23 06:57:50;;;;;;;5.93;1.87;;;;;;;;;;5016795;28;20147;-77
2022/11/23 07:00:17;;;;;;;11.17;1.73;;;;;;;;;;5016241;28;20080;-77
2022/11/23 07:02:55;;;;;;;6.53;1.67;;;;;;;;;;5016300;28;20029;-77
2022/11/23 07:05:22;;;;;;;12.23;2.07;;;;;;;;;;5016418;28;20424;-77
2022/11/23 07:07:48;;;;;;;8.60;2.13;;;;;;;;;;5016337;28;20324;-76
2022/11/23 07:10:14;;;;;;;7.20;1.73;;;;;;;;;;5030373;28;20128;-77
2022/11/23 07:12:40;;;;;;;8.10;1.60;;;;;;;;;;5010740;28;20489;-77
2022/11/23 07:15:07;;;;;;;6.20;1.37;;;;;;;;;;5031259;28;20034;-76
2022/11/23 07:17:33;;;;;;;9.57;1.70;;;;;;;;;;5032073;28;20061;-77
2022/11/23 07:19:59;;;;;;;7.27;1.60;;;;;;;;;;5030741;28;20037;-75
2022/11/23 07:22:38;;;;;;;5.30;2.00;;;;;;;;;;5015260;28;20453;-77
2022/11/23 07:25:05;;;;;;;10.07;2.20;;;;;;;;;;5012739;28;20045;-76
2022/11/23 07:27:34;;;;;;;17.87;2.00;;;;;;;;;;5014738;28;20014;-77
2022/11/23 07:30:00;;;;;;;8.07;2.00;;;;;;;;;;5015774;28;20025;-77
2022/11/23 07:32:35;;;;;;;11.00;1.90;;;;;;;;;;5014211;28;20343;-77
2022/11/23 07:35:01;;;;;;;13.00;2.00;;;;;;;;;;5008150;28;20026;-76
2022/11/23 07:37:27;;;;;;;9.80;2.50;;;;;;;;;;5022001;28;20046;-76
2022/11/23 07:39:53;;;;;;;7.20;1.77;;;;;;;;;;5005843;28;20025;-76
2022/11/23 07:42:19;;;;;;;10.40;2.33;;;;;;;;;;5011452;28;21200;-75
2022/11/23 07:44:45;;;;;;;9.23;2.13;;;;;;;;;;5018146;28;20098;-77
2022/11/23 07:47:11;;;;;;;13.43;2.17;;;;;;;;;;5017167;28;20482;-76
2022/11/23 07:49:37;;;;;;;10.70;2.13;;;;;;;;;;5015202;28;20041;-76
2022/11/23 07:52:06;;;;;;;13.13;3.37;;;;;;;;;;5029081;28;20041;-75
2022/11/23 07:54:32;;;;;;;12.47;2.80;;;;;;;;;;5029524;28;20446;-76
2022/11/23 07:56:58;;;;;;;13.87;2.23;;;;;;;;;;5017876;28;20034;-76
2022/11/23 07:59:24;;;;;;;15.10;3.30;;;;;;;;;;5013892;28;20715;-77
2022/11/23 08:01:50;;;;;;;10.90;2.50;;;;;;;;;;5027913;28;20061;-75
2022/11/23 08:04:16;;;;;;;14.70;2.97;;;;;;;;;;5026840;28;20022;-76
2022/11/23 08:06:42;;;;;;;14.13;3.27;;;;;;;;;;5025414;28;20461;-76
2022/11/23 08:09:08;;;;;;;13.03;3.13;;;;;;;;;;5015160;28;20037;-77
2022/11/23 08:11:34;;;;;;;10.77;2.63;;;;;;;;;;5018045;28;20035;-77
2022/11/23 08:14:00;;;;;;;17.37;3.53;;;;;;;;;;5014372;28;20034;-76
2022/11/23 08:16:26;;;;;;;15.50;2.83;;;;;;;;;;5017780;28;20052;-76
2022/11/23 08:18:52;;;;;;;17.33;2.30;;;;;;;;;;5015104;28;20128;-77
2022/11/23 08:21:18;;;;;;;10.90;2.23;;;;;;;;;;5026530;28;20117;-76
2022/11/23 08:23:44;;;;;;;14.73;2.27;;;;;;;;;;5027639;28;20034;-76
2022/11/23 08:26:10;;;;;;;11.97;2.07;;;;;;;;;;5015994;28;20029;-75
2022/11/23 08:28:38;;;;;;;12.70;1.67;;;;;;;;;;5016551;28;20126;-78
2022/11/23 08:31:08;;;;;;;13.10;2.17;;;;;;;;;;5017609;28;20062;-77
2022/11/23 08:33:37;;;;;;;13.97;3.10;;;;;;;;;;5025085;28;20172;-77
2022/11/23 08:36:07;;;;;;;9.30;2.60;;;;;;;;;;5015368;28;20048;-76
2022/11/23 08:38:34;;;;;;;7.33;2.70;;;;;;;;;;5019290;28;20479;-78
2022/11/23 08:41:04;;;;;;;9.97;1.60;;;;;;;;;;5016478;28;20044;-77
2022/11/23 08:43:30;;;;;;;12.17;3.20;;;;;;;;;;5023160;28;20026;-78
2022/11/23 08:45:57;;;;;;;12.47;3.30;;;;;;;;;;5030625;28;20477;-76
2022/11/23 08:48:23;;;;;;;12.90;2.00;;;;;;;;;;5016098;28;20438;-76
2022/11/23 08:50:49;;;;;;;11.83;2.57;;;;;;;;;;5013711;28;20037;-77
2022/11/23 08:53:15;;;;;;;10.10;2.40;;;;;;;;;;5016892;28;20045;-78
2022/11/23 08:55:44;;;;;;;12.27;2.10;;;;;;;;;;5030814;28;20100;-77
2022/11/23 08:58:10;;;;;;;12.87;2.50;;;;;;;;;;5029771;28;20064;-77
2022/11/23 09:00:37;;;;;;;16.87;2.53;;;;;;;;;;5013093;28;21769;-77
2022/11/23 09:03:05;;;;;;;11.03;2.00;;;;;;;;;;5012944;28;20109;-75
2022/11/23 09:05:31;;;;;;;15.30;3.93;;;;;;;;;;5028074;28;20029;-77
2022/11/23 09:08:01;;;;;;;9.67;2.40;;;;;;;;;;5025795;28;20893;-77
2022/11/23 09:10:29;;;;;;;12.93;2.43;;;;;;;;;;5024213;28;20752;-77
2022/11/23 09:12:55;;;;;;;8.47;1.67;;;;;;;;;;5016373;28;20046;-78
2022/11/23 09:15:21;;;;;;;13.07;3.00;;;;;;;;;;5013106;28;20038;-76
2022/11/23 09:17:47;;;;;;;12.87;2.70;;;;;;;;;;5031750;28;20378;-77
2022/11/23 09:20:14;;;;;;;9.83;2.40;;;;;;;;;;5029580;28;20497;-78
2022/11/23 09:22:40;;;;;;;8.73;2.17;;;;;;;;;;5023909;28;20092;-78
2022/11/23 09:25:06;;;;;;;16.30;2.93;;;;;;;;;;5014124;28;20041;-78
2022/11/23 09:27:32;;;;;;;10.17;2.20;;;;;;;;;;5014973;28;20022;-78
2022/11/23 09:29:58;;;;;;;13.53;2.80;;;;;;;;;;5017844;28;20088;-77
2022/11/23 09:32:25;;;;;;;15.87;3.10;;;;;;;;;;5027718;28;20034;-78
2022/11/23 09:34:51;;;;;;;17.33;3.00;;;;;;;;;;5013980;28;20065;-76
2022/11/23 09:37:17;;;;;;;10.87;2.20;;;;;;;;;;5011977;28;20103;-78
2022/11/23 09:39:43;;;;;;;12.17;2.40;;;;;;;;;;5013622;28;20030;-78
2022/11/23 09:42:13;;;;;;;11.63;2.40;;;;;;;;;;5044561;28;20026;-77
2022/11/23 09:44:42;;;;;;;10.70;2.73;;;;;;;;;;5028182;28;20046;-78
2022/11/23 09:47:11;;;;;;;8.40;2.90;;;;;;;;;;5012806;28;20058;-78
2022/11/23 09:49:50;;;;;;;14.37;3.53;;;;;;;;;;5013512;28;20034;-78
2022/11/23 09:52:18;;;;;;;10.90;2.10;;;;;;;;;;5014438;28;20454;-78
2022/11/23 09:54:45;;;;;;;10.37;1.97;;;;;;;;;;5003353;28;20328;-79
2022/11/23 09:57:18;;;;;;;13.17;3.07;;;;;;;;;;5013277;28;20083;-79
2022/11/23 09:59:54;;;;;;;9.27;2.07;;;;;;;;;;5015292;28;20065;-79
2022/11/23 10:02:22;;;;;;;11.63;2.60;;;;;;;;;;5013112;28;20316;-79
2022/11/23 10:04:48;;;;;;;11.73;1.70;;;;;;;;;;5013608;28;20030;-78
2022/11/23 10:07:17;;;;;;;14.30;2.43;;;;;;;;;;5013183;28;20422;-78
2022/11/23 10:09:52;;;;;;;11.67;2.40;;;;;;;;;;5045070;28;20049;-78
2022/11/23 10:12:18;;;;;;;13.50;1.80;;;;;;;;;;5016724;28;20438;-78
2022/11/23 10:14:55;;;;;;;8.63;2.10;;;;;;;;;;5014246;28;20092;-79
2022/11/23 10:17:32;;;;;;;10.43;2.67;;;;;;;;;;5047967;28;20030;-78
2022/11/23 10:20:10;;;;;;;9.80;1.67;;;;;;;;;;5028366;28;20119;-77
2022/11/23 10:22:54;;;;;;;19.90;3.10;;;;;;;;;;5022955;28;20431;-79
2022/11/23 10:25:21;;;;;;;9.33;2.13;;;;;;;;;;5033095;28;20129;-79
2022/11/23 10:27:48;;;;;;;10.83;1.63;;;;;;;;;;5046904;28;20041;-78
2022/11/23 10:30:18;;;;;;;13.40;2.10;;;;;;;;;;5017556;28;20092;-78
2022/11/23 10:33:04;;;;;;;13.93;1.93;;;;;;;;;;5006828;28;20514;-78
2022/11/23 10:35:37;;;;;;;7.53;2.23;;;;;;;;;;5014852;28;20107;-79
2022/11/23 10:38:10;;;;;;;11.63;1.92;;;;;;;;;;5016636;28;20061;-78
2022/11/23 10:40:37;;;;;;;12.10;2.13;;;;;;;;;;5014962;28;20108;-78
2022/11/23 10:43:10;;;;;;;6.93;2.00;;;;;;;;;;5020074;28;20129;-78
2022/11/23 10:45:36;;;;;;;11.73;2.73;;;;;;;;;;5015877;28;20021;-78
2022/11/23 10:48:02;;;;;;;12.80;2.33;;;;;;;;;;5015891;28;20018;-77
2022/11/23 10:50:36;;;;;;;5.87;1.60;;;;;;;;;;5022838;28;20057;-79
2022/11/23 10:53:05;;;;;;;8.93;2.03;;;;;;;;;;5023786;28;20033;-78
2022/11/23 10:55:56;;;;;;;12.40;2.00;;;;;;;;;;5033076;28;20053;-78
2022/11/23 10:58:45;;;;;;;7.97;1.90;;;;;;;;;;5013205;28;20054;-78
2022/11/23 11:01:15;;;;;;;7.83;1.50;;;;;;;;;;5015368;28;20346;-78
2022/11/23 11:03:44;;;;;;;8.50;1.50;;;;;;;;;;5016005;28;20470;-78
2022/11/23 11:06:10;;;;;;;6.00;1.80;;;;;;;;;;5020156;28;20022;-78
2022/11/23 11:08:49;;;;;;;8.37;1.57;;;;;;;;;;5032723;28;20053;-78
2022/11/23 11:11:26;;;;;;;11.87;2.33;;;;;;;;;;5017137;28;20403;-78
2022/11/23 11:14:01;;;;;;;8.13;1.70;;;;;;;;;;5029698;28;20113;-78
2022/11/23 11:16:32;;;;;;;5.57;1.47;;;;;;;;;;5037555;28;20493;-78
2022/11/23 11:18:58;;;;;;;6.57;1.20;;;;;;;;;;5019515;28;20034;-78
2022/11/23 11:21:35;;;;;;;7.30;1.80;;;;;;;;;;5015547;28;20032;-78
2022/11/23 11:24:01;;;;;;;7.27;1.40;;;;;;;;;;5002634;28;20431;-79
2022/11/23 11:26:28;;;;;;;6.00;2.13;;;;;;;;;;5015681;28;20064;-78
2022/11/23 11:28:55;;;;;;;7.20;1.77;;;;;;;;;;5017293;28;20030;-78
2022/11/23 11:31:24;;;;;;;10.73;1.87;;;;;;;;;;5024368;28;20034;-78
2022/11/23 11:34:08;;;;;;;8.23;1.53;;;;;;;;;;5032209;28;20029;-78
2022/11/23 11:36:37;;;;;;;5.20;1.03;;;;;;;;;;5011570;28;20197;-77
2022/11/23 11:39:08;;;;;;;6.97;1.50;;;;;;;;;;5055353;28;20034;-78
2022/11/23 11:41:36;;;;;;;7.07;1.50;;;;;;;;;;5020732;28;20121;-77
2022/11/23 11:44:12;;;;;;;8.93;1.10;;;;;;;;;;5047286;28;20038;-78
2022/11/23 11:46:41;;;;;;;7.07;1.67;;;;;;;;;;5010846;28;20034;-78
2022/11/23 11:49:13;;;;;;;5.33;1.20;;;;;;;;;;5045549;28;20032;-79
2022/11/23 11:51:45;;;;;;;6.88;1.45;;;;;;;;;;5011979;28;20037;-78
2022/11/23 11:54:23;;;;;;;6.15;1.38;;;;;;;;;;5008977;28;20038;-78
2022/11/23 11:56:55;;;;;;;9.13;1.47;;;;;;;;;;5003121;28;20109;-77
2022/11/23 11:59:33;;;;;;;7.27;1.40;;;;;;;;;;5032940;28;20022;-78
2022/11/23 12:02:17;;;;;;;7.90;1.87;;;;;;;;;;5012400;28;20048;-79
2022/11/23 12:05:07;;;;;;;10.57;1.60;;;;;;;;;;5023955;28;20021;-78
2022/11/23 12:07:35;;;;;;;6.87;1.23;;;;;;;;;;5020033;28;20040;-78
2022/11/23 12:10:17;;;;;;;8.70;1.50;;;;;;;;;;5043942;28;20041;-79
2022/11/23 12:12:43;;;;;;;9.23;2.03;;;;;;;;;;5014800;28;20052;-78
2022/11/23 12:15:16;;;;;;;6.23;1.27;;;;;;;;;;5047358;28;20091;-79
2022/11/23 12:17:48;;;;;;;7.20;1.10;;;;;;;;;;5032099;28;20367;-79
2022/11/23 12:20:27;;;;;;;9.18;1.88;;;;;;;;;;5030134;28;20418;-78
2022/11/23 12:23:12;;;;;;;4.67;1.93;;;;;;;;;;5007059;28;20014;-79
2022/11/23 12:25:41;;;;;;;8.37;1.73;;;;;;;;;;5033124;28;20330;-78
2022/11/23 12:28:25;;;;;;;6.33;1.10;;;;;;;;;;5016429;28;20378;-78
2022/11/23 12:30:57;;;;;;;6.97;1.33;;;;;;;;;;5048364;28;20366;-78
2022/11/23 12:33:23;;;;;;;4.65;1.20;;;;;;;;;;5020463;28;20025;-78
2022/11/23 12:36:02;;;;;;;10.00;1.20;;;;;;;;;;5040694;28;20053;-76
2022/11/23 12:38:31;;;;;;;9.13;1.20;;;;;;;;;;5008760;28;20030;-78
2022/11/23 12:41:06;;;;;;;11.90;2.00;;;;;;;;;;5023251;28;20034;-78
2022/11/23 12:43:36;;;;;;;7.57;1.10;;;;;;;;;;5028093;28;20026;-79
2022/11/23 12:46:02;;;;;;;6.03;1.97;;;;;;;;;;5004608;28;20025;-78
2022/11/23 12:49:02;;;;;;;4.27;1.00;;;;;;;;;;5015251;28;20052;-79
2022/11/23 12:51:46;;;;;;;4.30;0.97;;;;;;;;;;5013938;28;20113;-78
2022/11/23 12:54:25;;;;;;;7.33;2.07;;;;;;;;;;5014001;28;20053;-77
2022/11/23 12:56:57;;;;;;;6.53;1.40;;;;;;;;;;5001811;28;20419;-79
2022/11/23 12:59:24;;;;;;;7.85;1.55;;;;;;;;;;5013838;28;20030;-78
2022/11/23 13:01:56;;;;;;;5.70;1.10;;;;;;;;;;5014890;28;20030;-79
2022/11/23 13:04:41;;;;;;;2.23;0.97;;;;;;;;;;5011268;28;20032;-78
2022/11/23 13:07:13;;;;;;;9.40;1.17;;;;;;;;;;5026498;28;20069;-78
2022/11/23 13:09:42;;;;;;;7.68;1.63;;;;;;;;;;5046413;28;20029;-78
2022/11/23 13:12:11;;;;;;;3.57;0.83;;;;;;;;;;5029556;28;20048;-78
2022/11/23 13:14:56;;;;;;;5.47;0.93;;;;;;;;;;5030026;28;20390;-78
2022/11/23 13:17:22;;;;;;;7.83;1.20;;;;;;;;;;5014794;28;20121;-78
2022/11/23 13:20:03;;;;;;;3.83;0.90;;;;;;;;;;5009107;28;20026;-78
2022/11/23 13:22:30;;;;;;;3.00;1.10;;;;;;;;;;5013784;28;20033;-78
2022/11/23 13:24:58;;;;;;;10.63;2.17;;;;;;;;;;5014403;28;20022;-79
2022/11/23 13:27:24;;;;;;;7.43;1.73;;;;;;;;;;5027645;28;20105;-79
2022/11/23 13:29:50;;;;;;;5.43;1.30;;;;;;;;;;5032763;28;20580;-78
2022/11/23 13:32:35;;;;;;;6.70;1.17;;;;;;;;;;5045205;28;20108;-77
2022/11/23 13:35:01;;;;;;;6.70;1.40;;;;;;;;;;5023525;28;20041;-79
2022/11/23 13:37:27;;;;;;;7.60;1.47;;;;;;;;;;5004818;28;20038;-78
2022/11/23 13:39:57;;;;;;;6.07;1.40;;;;;;;;;;5015685;28;20029;-78
2022/11/23 13:42:24;;;;;;;6.07;1.43;;;;;;;;;;5015534;28;20033;-77
2022/11/23 13:45:10;;;;;;;3.77;1.40;;;;;;;;;;5015087;28;20030;-77
2022/11/23 13:47:39;;;;;;;8.50;1.40;;;;;;;;;;5013293;28;20107;-78
2022/11/23 13:50:17;;;;;;;4.77;1.10;;;;;;;;;;5019242;28;20026;-77
2022/11/23 13:52:50;;;;;;;5.50;1.10;;;;;;;;;;5028935;28;20436;-77
2022/11/23 13:55:29;;;;;;;6.63;1.37;;;;;;;;;;5020165;28;20036;-77
2022/11/23 13:58:14;;;;;;;7.17;2.17;;;;;;;;;;5031770;28;20778;-77
2022/11/23 14:00:44;;;;;;;7.27;1.20;;;;;;;;;;5030835;28;20446;-78
2022/11/23 14:03:29;;;;;;;8.37;1.60;;;;;;;;;;5018811;28;20053;-78
2022/11/23 14:06:01;;;;;;;4.67;1.40;;;;;;;;;;5019698;28;20034;-77
2022/11/23 14:08:27;;;;;;;3.78;1.17;;;;;;;;;;5034126;28;20048;-77
2022/11/23 14:10:53;;;;;;;5.33;1.40;;;;;;;;;;5033651;28;20033;-78
2022/11/23 14:13:31;;;;;;;11.43;2.10;;;;;;;;;;5027451;28;20034;-77
2022/11/23 14:15:59;;;;;;;8.93;2.33;;;;;;;;;;5016458;28;20053;-78
2022/11/23 14:18:29;;;;;;;5.87;1.50;;;;;;;;;;5028246;28;20038;-77
2022/11/23 14:21:01;;;;;;;6.10;2.43;;;;;;;;;;5029086;28;20190;-78
2022/11/23 14:23:33;;;;;;;7.20;1.50;;;;;;;;;;5026853;28;20025;-76
2022/11/23 14:26:02;;;;;;;7.68;1.40;;;;;;;;;;5020215;28;20021;-78
2022/11/23 14:28:47;;;;;;;6.90;1.43;;;;;;;;;;5018119;28;20484;-79
2022/11/23 14:31:14;;;;;;;6.57;1.50;;;;;;;;;;5018226;28;20030;-78
2022/11/23 14:33:43;;;;;;;11.47;2.03;;;;;;;;;;5034308;28;20033;-77
2022/11/23 14:36:21;;;;;;;3.07;1.23;;;;;;;;;;5030026;28;20126;-78
2022/11/23 14:38:47;;;;;;;11.77;1.73;;;;;;;;;;5033468;28;20040;-78
2022/11/23 14:41:16;;;;;;;5.27;1.53;;;;;;;;;;5033298;28;20034;-77
2022/11/23 14:43:44;;;;;;;4.47;1.23;;;;;;;;;;5029843;28;20393;-78
2022/11/23 14:46:18;;;;;;;7.83;1.40;;;;;;;;;;5016823;28;20105;-77
2022/11/23 14:48:44;;;;;;;3.93;1.33;;;;;;;;;;5015708;28;20034;-78
2022/11/23 14:51:15;;;;;;;6.47;2.07;;;;;;;;;;5016535;28;20022;-78